sensor_id;sensor_type;location;lat;lon;timestamp;temperature;humidity
698;DHT22;331;48.414;9.938;2022-09-16T00:00:49;14.40;99.90
698;DHT22;331;48.414;9.938;2022-09-16T00:03:18;14.30;99.90
698;DHT22;331;48.414;9.938;2022-09-16T00:08:17;14.30;99.90
698;DHT22;331;48.414;9.938;2022-09-16T00:10:49;14.20;99.90
698;DHT22;331;48.414;9.938;2022-09-16T00:13:27;14.20;99.90
698;DHT22;331;48.414;9.938;2022-09-16T00:15:54;14.20;99.90
698;DHT22;331;48.414;9.938;2022-09-16T00:18:21;14.20;99.90
698;DHT22;331;48.414;9.938;2022-09-16T00:20:48;14.10;99.90
698;DHT22;331;48.414;9.938;2022-09-16T00:23:17;14.10;99.90
698;DHT22;331;48.414;9.938;2022-09-16T00:25:48;14.10;99.90
698;DHT22;331;48.414;9.938;2022-09-16T00:28:15;14.10;99.90
698;DHT22;331;48.414;9.938;2022-09-16T00:30:43;14.10;99.90
698;DHT22;331;48.414;9.938;2022-09-16T00:33:10;14.00;99.90
698;DHT22;331;48.414;9.938;2022-09-16T00:35:37;14.00;99.90
698;DHT22;331;48.414;9.938;2022-09-16T00:38:03;14.00;99.90
698;DHT22;331;48.414;9.938;2022-09-16T00:40:32;14.00;99.90
698;DHT22;331;48.414;9.938;2022-09-16T00:42:58;13.90;99.90
698;DHT22;331;48.414;9.938;2022-09-16T00:45:25;13.90;99.90
698;DHT22;331;48.414;9.938;2022-09-16T00:47:56;13.80;99.90
698;DHT22;331;48.414;9.938;2022-09-16T00:52:51;13.90;99.90
698;DHT22;331;48.414;9.938;2022-09-16T00:55:20;13.90;99.90
698;DHT22;331;48.414;9.938;2022-09-16T01:00:18;13.80;99.90
698;DHT22;331;48.414;9.938;2022-09-16T01:02:45;13.80;99.90
698;DHT22;331;48.414;9.938;2022-09-16T01:05:13;13.80;99.90
698;DHT22;331;48.414;9.938;2022-09-16T01:07:42;13.80;99.90
698;DHT22;331;48.414;9.938;2022-09-16T01:10:10;13.80;99.90
698;DHT22;331;48.414;9.938;2022-09-16T01:12:37;13.80;99.90
698;DHT22;331;48.414;9.938;2022-09-16T01:15:05;13.70;99.90
698;DHT22;331;48.414;9.938;2022-09-16T01:17:38;13.80;99.90
698;DHT22;331;48.414;9.938;2022-09-16T01:20:15;13.70;99.90
698;DHT22;331;48.414;9.938;2022-09-16T01:22:51;13.80;99.90
698;DHT22;331;48.414;9.938;2022-09-16T01:25:25;13.80;99.90
698;DHT22;331;48.414;9.938;2022-09-16T01:28:10;13.70;99.90
698;DHT22;331;48.414;9.938;2022-09-16T01:30:44;13.80;99.90
698;DHT22;331;48.414;9.938;2022-09-16T01:33:15;13.80;99.90
698;DHT22;331;48.414;9.938;2022-09-16T01:35:47;13.80;99.90
698;DHT22;331;48.414;9.938;2022-09-16T01:38:21;13.80;99.90
698;DHT22;331;48.414;9.938;2022-09-16T01:40:51;13.80;99.90
698;DHT22;331;48.414;9.938;2022-09-16T01:43:22;13.80;99.90
698;DHT22;331;48.414;9.938;2022-09-16T01:45:54;13.80;99.90
698;DHT22;331;48.414;9.938;2022-09-16T01:48:22;13.80;99.90
698;DHT22;331;48.414;9.938;2022-09-16T01:50:55;13.80;99.90
698;DHT22;331;48.414;9.938;2022-09-16T01:53:26;13.80;99.90
698;DHT22;331;48.414;9.938;2022-09-16T01:55:56;13.90;99.90
698;DHT22;331;48.414;9.938;2022-09-16T01:58:25;13.80;99.90
698;DHT22;331;48.414;9.938;2022-09-16T02:00:56;13.80;99.90
698;DHT22;331;48.414;9.938;2022-09-16T02:03:25;13.80;99.90
698;DHT22;331;48.414;9.938;2022-09-16T02:05:54;13.80;99.90
698;DHT22;331;48.414;9.938;2022-09-16T02:08:25;13.80;99.90
698;DHT22;331;48.414;9.938;2022-09-16T02:10:54;13.80;99.90
698;DHT22;331;48.414;9.938;2022-09-16T02:13:24;13.80;99.90
698;DHT22;331;48.414;9.938;2022-09-16T02:15:52;13.80;99.90
698;DHT22;331;48.414;9.938;2022-09-16T02:18:23;13.80;99.90
698;DHT22;331;48.414;9.938;2022-09-16T02:20:52;13.80;99.90
698;DHT22;331;48.414;9.938;2022-09-16T02:23:21;13.80;99.90
698;DHT22;331;48.414;9.938;2022-09-16T02:25:49;13.80;99.90
698;DHT22;331;48.414;9.938;2022-09-16T02:28:17;13.80;99.90
698;DHT22;331;48.414;9.938;2022-09-16T02:30:46;13.80;99.90
698;DHT22;331;48.414;9.938;2022-09-16T02:33:15;13.80;99.90
698;DHT22;331;48.414;9.938;2022-09-16T02:35:44;13.70;99.90
698;DHT22;331;48.414;9.938;2022-09-16T02:38:13;13.70;99.90
698;DHT22;331;48.414;9.938;2022-09-16T02:40:43;13.70;99.90
698;DHT22;331;48.414;9.938;2022-09-16T02:43:11;13.70;99.90
698;DHT22;331;48.414;9.938;2022-09-16T02:45:40;13.60;99.90
698;DHT22;331;48.414;9.938;2022-09-16T02:48:09;13.60;99.90
698;DHT22;331;48.414;9.938;2022-09-16T02:50:39;13.60;99.90
698;DHT22;331;48.414;9.938;2022-09-16T02:53:11;13.60;99.90
698;DHT22;331;48.414;9.938;2022-09-16T02:55:44;13.50;99.90
698;DHT22;331;48.414;9.938;2022-09-16T02:58:14;13.50;99.90
698;DHT22;331;48.414;9.938;2022-09-16T03:00:42;13.50;99.90
698;DHT22;331;48.414;9.938;2022-09-16T03:03:10;13.50;99.90
698;DHT22;331;48.414;9.938;2022-09-16T03:05:39;13.50;99.90
698;DHT22;331;48.414;9.938;2022-09-16T03:08:16;13.50;99.90
698;DHT22;331;48.414;9.938;2022-09-16T03:10:43;13.50;99.90
698;DHT22;331;48.414;9.938;2022-09-16T03:13:11;13.50;99.90
698;DHT22;331;48.414;9.938;2022-09-16T03:15:52;13.50;99.90
698;DHT22;331;48.414;9.938;2022-09-16T03:18:26;13.50;99.90
698;DHT22;331;48.414;9.938;2022-09-16T03:20:56;13.50;99.90
698;DHT22;331;48.414;9.938;2022-09-16T03:23:28;13.50;99.90
698;DHT22;331;48.414;9.938;2022-09-16T03:26:01;13.60;99.90
698;DHT22;331;48.414;9.938;2022-09-16T03:28:33;13.50;99.90
698;DHT22;331;48.414;9.938;2022-09-16T03:31:03;13.50;99.90
698;DHT22;331;48.414;9.938;2022-09-16T03:33:33;13.50;99.90
698;DHT22;331;48.414;9.938;2022-09-16T03:36:01;13.50;99.90
698;DHT22;331;48.414;9.938;2022-09-16T03:38:32;13.50;99.90
698;DHT22;331;48.414;9.938;2022-09-16T03:41:00;13.50;99.90
698;DHT22;331;48.414;9.938;2022-09-16T03:43:27;13.50;99.90
698;DHT22;331;48.414;9.938;2022-09-16T03:45:54;13.50;99.90
698;DHT22;331;48.414;9.938;2022-09-16T03:48:21;13.50;99.90
698;DHT22;331;48.414;9.938;2022-09-16T03:50:48;13.50;99.90
698;DHT22;331;48.414;9.938;2022-09-16T03:53:15;13.50;99.90
698;DHT22;331;48.414;9.938;2022-09-16T03:55:43;13.50;99.90
698;DHT22;331;48.414;9.938;2022-09-16T03:58:11;13.50;99.90
698;DHT22;331;48.414;9.938;2022-09-16T04:00:38;13.50;99.90
698;DHT22;331;48.414;9.938;2022-09-16T04:03:05;13.50;99.90
698;DHT22;331;48.414;9.938;2022-09-16T04:05:33;13.50;99.90
698;DHT22;331;48.414;9.938;2022-09-16T04:08:00;13.50;99.90
698;DHT22;331;48.414;9.938;2022-09-16T04:10:27;13.50;99.90
698;DHT22;331;48.414;9.938;2022-09-16T04:12:56;13.50;99.90
698;DHT22;331;48.414;9.938;2022-09-16T04:15:24;13.50;99.90
698;DHT22;331;48.414;9.938;2022-09-16T04:17:51;13.50;99.90
698;DHT22;331;48.414;9.938;2022-09-16T04:20:18;13.50;99.90
698;DHT22;331;48.414;9.938;2022-09-16T04:22:44;13.40;99.90
698;DHT22;331;48.414;9.938;2022-09-16T04:25:11;13.40;99.90
698;DHT22;331;48.414;9.938;2022-09-16T04:27:38;13.50;99.90
698;DHT22;331;48.414;9.938;2022-09-16T04:30:07;13.40;99.90
698;DHT22;331;48.414;9.938;2022-09-16T04:32:34;13.40;99.90
698;DHT22;331;48.414;9.938;2022-09-16T04:35:01;13.40;99.90
698;DHT22;331;48.414;9.938;2022-09-16T04:37:28;13.40;99.90
698;DHT22;331;48.414;9.938;2022-09-16T04:39:56;13.40;99.90
698;DHT22;331;48.414;9.938;2022-09-16T04:42:23;13.40;99.90
698;DHT22;331;48.414;9.938;2022-09-16T04:44:50;13.40;99.90
698;DHT22;331;48.414;9.938;2022-09-16T04:47:18;13.40;99.90
698;DHT22;331;48.414;9.938;2022-09-16T04:49:45;13.40;99.90
698;DHT22;331;48.414;9.938;2022-09-16T04:52:11;13.40;99.90
698;DHT22;331;48.414;9.938;2022-09-16T04:54:38;13.40;99.90
698;DHT22;331;48.414;9.938;2022-09-16T04:57:05;13.40;99.90
698;DHT22;331;48.414;9.938;2022-09-16T04:59:32;13.40;99.90
698;DHT22;331;48.414;9.938;2022-09-16T05:01:58;13.40;99.90
698;DHT22;331;48.414;9.938;2022-09-16T05:04:26;13.30;99.90
698;DHT22;331;48.414;9.938;2022-09-16T05:06:53;13.30;99.90
698;DHT22;331;48.414;9.938;2022-09-16T05:09:20;13.30;99.90
698;DHT22;331;48.414;9.938;2022-09-16T05:11:47;13.30;99.90
698;DHT22;331;48.414;9.938;2022-09-16T05:14:14;13.40;99.90
698;DHT22;331;48.414;9.938;2022-09-16T05:16:41;13.30;99.90
698;DHT22;331;48.414;9.938;2022-09-16T05:19:09;13.30;99.90
698;DHT22;331;48.414;9.938;2022-09-16T05:21:37;13.30;99.90
698;DHT22;331;48.414;9.938;2022-09-16T05:24:06;13.30;99.90
698;DHT22;331;48.414;9.938;2022-09-16T05:26:33;13.30;99.90
698;DHT22;331;48.414;9.938;2022-09-16T05:29:01;13.40;99.90
698;DHT22;331;48.414;9.938;2022-09-16T05:31:29;13.40;99.90
698;DHT22;331;48.414;9.938;2022-09-16T05:33:56;13.40;99.90
698;DHT22;331;48.414;9.938;2022-09-16T05:36:23;13.30;99.90
698;DHT22;331;48.414;9.938;2022-09-16T05:38:52;13.30;99.90
698;DHT22;331;48.414;9.938;2022-09-16T05:41:19;13.30;99.90
698;DHT22;331;48.414;9.938;2022-09-16T05:43:46;13.30;99.90
698;DHT22;331;48.414;9.938;2022-09-16T05:46:16;13.30;99.90
698;DHT22;331;48.414;9.938;2022-09-16T05:48:43;13.40;99.90
698;DHT22;331;48.414;9.938;2022-09-16T05:51:09;13.40;99.90
698;DHT22;331;48.414;9.938;2022-09-16T05:53:38;13.40;99.90
698;DHT22;331;48.414;9.938;2022-09-16T05:56:07;13.40;99.90
698;DHT22;331;48.414;9.938;2022-09-16T05:58:34;13.40;99.90
698;DHT22;331;48.414;9.938;2022-09-16T06:01:02;13.40;99.90
698;DHT22;331;48.414;9.938;2022-09-16T06:03:30;13.30;99.90
698;DHT22;331;48.414;9.938;2022-09-16T06:06:00;13.40;99.90
698;DHT22;331;48.414;9.938;2022-09-16T06:08:27;13.40;99.90
698;DHT22;331;48.414;9.938;2022-09-16T06:10:54;13.40;99.90
698;DHT22;331;48.414;9.938;2022-09-16T06:13:22;13.30;99.90
698;DHT22;331;48.414;9.938;2022-09-16T06:15:49;13.30;99.90
698;DHT22;331;48.414;9.938;2022-09-16T06:18:18;13.30;99.90
698;DHT22;331;48.414;9.938;2022-09-16T06:20:45;13.30;99.90
698;DHT22;331;48.414;9.938;2022-09-16T06:23:12;13.30;99.90
698;DHT22;331;48.414;9.938;2022-09-16T06:25:39;13.30;99.90
698;DHT22;331;48.414;9.938;2022-09-16T06:28:06;13.30;99.90
698;DHT22;331;48.414;9.938;2022-09-16T06:30:35;13.40;99.90
698;DHT22;331;48.414;9.938;2022-09-16T06:33:02;13.30;99.90
698;DHT22;331;48.414;9.938;2022-09-16T06:35:29;13.30;99.90
698;DHT22;331;48.414;9.938;2022-09-16T06:37:55;13.30;99.90
698;DHT22;331;48.414;9.938;2022-09-16T06:40:23;13.30;99.90
698;DHT22;331;48.414;9.938;2022-09-16T06:42:51;13.30;99.90
698;DHT22;331;48.414;9.938;2022-09-16T06:45:18;13.30;99.90
698;DHT22;331;48.414;9.938;2022-09-16T06:47:46;13.30;99.90
698;DHT22;331;48.414;9.938;2022-09-16T06:50:13;13.30;99.90
698;DHT22;331;48.414;9.938;2022-09-16T06:52:40;13.30;99.90
698;DHT22;331;48.414;9.938;2022-09-16T06:55:07;13.40;99.90
698;DHT22;331;48.414;9.938;2022-09-16T06:57:34;13.30;99.90
698;DHT22;331;48.414;9.938;2022-09-16T07:00:01;13.30;99.90
698;DHT22;331;48.414;9.938;2022-09-16T07:02:28;13.40;99.90
698;DHT22;331;48.414;9.938;2022-09-16T07:04:57;13.40;99.90
698;DHT22;331;48.414;9.938;2022-09-16T07:07:23;13.40;99.90
698;DHT22;331;48.414;9.938;2022-09-16T07:09:50;13.40;99.90
698;DHT22;331;48.414;9.938;2022-09-16T07:12:18;13.40;99.90
698;DHT22;331;48.414;9.938;2022-09-16T07:14:44;13.40;99.90
698;DHT22;331;48.414;9.938;2022-09-16T07:17:11;13.40;99.90
698;DHT22;331;48.414;9.938;2022-09-16T07:19:38;13.40;99.90
698;DHT22;331;48.414;9.938;2022-09-16T07:22:08;13.40;99.90
698;DHT22;331;48.414;9.938;2022-09-16T07:24:35;13.40;99.90
698;DHT22;331;48.414;9.938;2022-09-16T07:27:02;13.50;99.90
698;DHT22;331;48.414;9.938;2022-09-16T07:29:29;13.50;99.90
698;DHT22;331;48.414;9.938;2022-09-16T07:31:56;13.60;99.90
698;DHT22;331;48.414;9.938;2022-09-16T07:34:23;13.60;99.90
698;DHT22;331;48.414;9.938;2022-09-16T07:36:49;13.60;99.90
698;DHT22;331;48.414;9.938;2022-09-16T07:39:18;13.70;99.90
698;DHT22;331;48.414;9.938;2022-09-16T07:41:46;13.70;99.90
698;DHT22;331;48.414;9.938;2022-09-16T07:44:14;13.70;99.90
698;DHT22;331;48.414;9.938;2022-09-16T07:46:41;13.70;99.90
698;DHT22;331;48.414;9.938;2022-09-16T07:49:09;13.70;99.90
698;DHT22;331;48.414;9.938;2022-09-16T07:51:36;13.70;99.90
698;DHT22;331;48.414;9.938;2022-09-16T07:54:03;13.70;99.90
698;DHT22;331;48.414;9.938;2022-09-16T07:56:32;13.70;99.90
698;DHT22;331;48.414;9.938;2022-09-16T07:59:00;13.70;99.90
698;DHT22;331;48.414;9.938;2022-09-16T08:01:27;13.70;99.90
698;DHT22;331;48.414;9.938;2022-09-16T08:03:55;13.80;99.90
698;DHT22;331;48.414;9.938;2022-09-16T08:06:23;13.70;99.90
698;DHT22;331;48.414;9.938;2022-09-16T08:08:50;13.80;99.90
698;DHT22;331;48.414;9.938;2022-09-16T08:11:18;13.80;99.90
698;DHT22;331;48.414;9.938;2022-09-16T08:13:46;13.80;99.90
698;DHT22;331;48.414;9.938;2022-09-16T08:16:13;13.80;99.90
698;DHT22;331;48.414;9.938;2022-09-16T08:18:40;13.80;99.90
698;DHT22;331;48.414;9.938;2022-09-16T08:21:08;13.80;99.90
698;DHT22;331;48.414;9.938;2022-09-16T08:23:36;13.80;99.90
698;DHT22;331;48.414;9.938;2022-09-16T08:26:03;13.80;99.90
698;DHT22;331;48.414;9.938;2022-09-16T08:28:32;13.80;99.90
698;DHT22;331;48.414;9.938;2022-09-16T08:31:01;13.80;99.90
698;DHT22;331;48.414;9.938;2022-09-16T08:33:28;13.80;99.90
698;DHT22;331;48.414;9.938;2022-09-16T08:35:58;13.80;99.90
698;DHT22;331;48.414;9.938;2022-09-16T08:38:25;13.80;99.90
698;DHT22;331;48.414;9.938;2022-09-16T08:40:52;13.70;99.90
698;DHT22;331;48.414;9.938;2022-09-16T08:43:22;13.70;99.90
698;DHT22;331;48.414;9.938;2022-09-16T08:45:55;13.70;99.90
698;DHT22;331;48.414;9.938;2022-09-16T08:48:28;13.70;99.90
698;DHT22;331;48.414;9.938;2022-09-16T08:50:57;13.70;99.90
698;DHT22;331;48.414;9.938;2022-09-16T08:53:28;13.70;99.90
698;DHT22;331;48.414;9.938;2022-09-16T08:55:58;13.70;99.90
698;DHT22;331;48.414;9.938;2022-09-16T08:58:29;13.70;99.90
698;DHT22;331;48.414;9.938;2022-09-16T09:00:57;13.60;99.90
698;DHT22;331;48.414;9.938;2022-09-16T09:03:30;13.60;99.90
698;DHT22;331;48.414;9.938;2022-09-16T09:05:59;13.60;99.90
698;DHT22;331;48.414;9.938;2022-09-16T09:08:32;13.60;99.90
698;DHT22;331;48.414;9.938;2022-09-16T09:11:01;13.60;99.90
698;DHT22;331;48.414;9.938;2022-09-16T09:13:39;13.50;99.90
698;DHT22;331;48.414;9.938;2022-09-16T09:16:13;13.50;99.90
698;DHT22;331;48.414;9.938;2022-09-16T09:18:46;13.50;99.90
698;DHT22;331;48.414;9.938;2022-09-16T09:21:18;13.50;99.90
698;DHT22;331;48.414;9.938;2022-09-16T09:26:33;13.50;99.90
698;DHT22;331;48.414;9.938;2022-09-16T09:29:15;13.50;99.90
698;DHT22;331;48.414;9.938;2022-09-16T09:31:48;13.50;99.90
698;DHT22;331;48.414;9.938;2022-09-16T09:34:25;13.50;99.90
698;DHT22;331;48.414;9.938;2022-09-16T09:36:58;13.40;99.90
698;DHT22;331;48.414;9.938;2022-09-16T09:39:30;13.40;99.90
698;DHT22;331;48.414;9.938;2022-09-16T09:42:01;13.40;99.90
698;DHT22;331;48.414;9.938;2022-09-16T09:44:37;13.40;99.90
698;DHT22;331;48.414;9.938;2022-09-16T09:47:07;13.40;99.90
698;DHT22;331;48.414;9.938;2022-09-16T09:49:38;13.40;99.90
698;DHT22;331;48.414;9.938;2022-09-16T09:52:07;13.40;99.90
698;DHT22;331;48.414;9.938;2022-09-16T09:54:36;13.40;99.90
698;DHT22;331;48.414;9.938;2022-09-16T09:57:09;13.40;99.90
698;DHT22;331;48.414;9.938;2022-09-16T09:59:39;13.40;99.90
698;DHT22;331;48.414;9.938;2022-09-16T10:02:11;13.40;99.90
698;DHT22;331;48.414;9.938;2022-09-16T10:04:41;13.40;99.90
698;DHT22;331;48.414;9.938;2022-09-16T10:07:07;13.40;99.90
698;DHT22;331;48.414;9.938;2022-09-16T10:09:35;13.30;99.90
698;DHT22;331;48.414;9.938;2022-09-16T10:12:02;13.40;99.90
698;DHT22;331;48.414;9.938;2022-09-16T10:14:30;13.40;99.90
698;DHT22;331;48.414;9.938;2022-09-16T10:16:59;13.40;99.90
698;DHT22;331;48.414;9.938;2022-09-16T10:19:27;13.40;99.90
698;DHT22;331;48.414;9.938;2022-09-16T10:22:08;13.40;99.90
698;DHT22;331;48.414;9.938;2022-09-16T10:24:36;13.40;99.90
698;DHT22;331;48.414;9.938;2022-09-16T10:27:16;13.40;99.90
698;DHT22;331;48.414;9.938;2022-09-16T10:29:44;13.50;99.90
698;DHT22;331;48.414;9.938;2022-09-16T10:32:12;13.50;99.90
698;DHT22;331;48.414;9.938;2022-09-16T10:34:41;13.50;99.90
698;DHT22;331;48.414;9.938;2022-09-16T10:37:15;13.50;99.90
698;DHT22;331;48.414;9.938;2022-09-16T10:39:43;13.50;99.90
698;DHT22;331;48.414;9.938;2022-09-16T10:42:14;13.50;99.90
698;DHT22;331;48.414;9.938;2022-09-16T10:44:42;13.50;99.90
698;DHT22;331;48.414;9.938;2022-09-16T10:47:14;13.50;99.90
698;DHT22;331;48.414;9.938;2022-09-16T10:49:42;13.60;99.90
698;DHT22;331;48.414;9.938;2022-09-16T10:52:17;13.60;99.90
698;DHT22;331;48.414;9.938;2022-09-16T10:54:46;13.60;99.90
698;DHT22;331;48.414;9.938;2022-09-16T10:57:25;13.60;99.90
698;DHT22;331;48.414;9.938;2022-09-16T10:59:57;13.60;99.90
698;DHT22;331;48.414;9.938;2022-09-16T11:02:27;13.60;99.90
698;DHT22;331;48.414;9.938;2022-09-16T11:04:59;13.60;99.90
698;DHT22;331;48.414;9.938;2022-09-16T11:07:32;13.60;99.90
698;DHT22;331;48.414;9.938;2022-09-16T11:10:03;13.60;99.90
698;DHT22;331;48.414;9.938;2022-09-16T11:12:37;13.60;99.90
698;DHT22;331;48.414;9.938;2022-09-16T11:15:10;13.60;99.90
698;DHT22;331;48.414;9.938;2022-09-16T11:17:42;13.70;99.90
698;DHT22;331;48.414;9.938;2022-09-16T11:20:21;13.70;99.90
698;DHT22;331;48.414;9.938;2022-09-16T11:22:55;13.70;99.90
698;DHT22;331;48.414;9.938;2022-09-16T11:25:32;13.70;99.90
698;DHT22;331;48.414;9.938;2022-09-16T11:28:07;13.70;99.90
698;DHT22;331;48.414;9.938;2022-09-16T11:30:39;13.70;99.90
698;DHT22;331;48.414;9.938;2022-09-16T11:33:16;13.80;99.90
698;DHT22;331;48.414;9.938;2022-09-16T11:36:01;13.70;99.90
698;DHT22;331;48.414;9.938;2022-09-16T11:38:32;13.80;99.90
698;DHT22;331;48.414;9.938;2022-09-16T11:41:06;13.80;99.90
698;DHT22;331;48.414;9.938;2022-09-16T11:43:41;13.80;99.90
698;DHT22;331;48.414;9.938;2022-09-16T11:46:14;13.80;99.90
698;DHT22;331;48.414;9.938;2022-09-16T11:48:47;13.80;99.90
698;DHT22;331;48.414;9.938;2022-09-16T11:51:22;13.80;99.90
698;DHT22;331;48.414;9.938;2022-09-16T11:53:57;13.80;99.90
698;DHT22;331;48.414;9.938;2022-09-16T11:56:28;13.80;99.90
698;DHT22;331;48.414;9.938;2022-09-16T11:58:57;13.80;99.90
698;DHT22;331;48.414;9.938;2022-09-16T12:01:27;13.90;99.90
698;DHT22;331;48.414;9.938;2022-09-16T12:03:57;13.80;99.90
698;DHT22;331;48.414;9.938;2022-09-16T12:06:27;13.90;99.90
698;DHT22;331;48.414;9.938;2022-09-16T12:08:58;13.90;99.90
698;DHT22;331;48.414;9.938;2022-09-16T12:11:26;13.90;99.90
698;DHT22;331;48.414;9.938;2022-09-16T12:13:59;13.90;99.90
698;DHT22;331;48.414;9.938;2022-09-16T12:16:29;13.90;99.90
698;DHT22;331;48.414;9.938;2022-09-16T12:18:57;13.90;99.90
698;DHT22;331;48.414;9.938;2022-09-16T12:21:26;14.00;99.90
698;DHT22;331;48.414;9.938;2022-09-16T12:23:54;14.00;99.90
698;DHT22;331;48.414;9.938;2022-09-16T12:26:24;14.00;99.90
698;DHT22;331;48.414;9.938;2022-09-16T12:28:53;14.00;99.90
698;DHT22;331;48.414;9.938;2022-09-16T12:31:22;14.00;99.90
698;DHT22;331;48.414;9.938;2022-09-16T12:33:51;14.00;99.90
698;DHT22;331;48.414;9.938;2022-09-16T12:36:21;14.00;99.90
698;DHT22;331;48.414;9.938;2022-09-16T12:38:49;14.00;99.90
698;DHT22;331;48.414;9.938;2022-09-16T12:41:32;14.00;99.90
698;DHT22;331;48.414;9.938;2022-09-16T12:44:07;14.10;99.90
698;DHT22;331;48.414;9.938;2022-09-16T12:46:51;14.10;99.90
698;DHT22;331;48.414;9.938;2022-09-16T12:52:21;14.10;99.90
698;DHT22;331;48.414;9.938;2022-09-16T12:54:56;14.10;99.90
698;DHT22;331;48.414;9.938;2022-09-16T12:57:34;14.20;99.90
698;DHT22;331;48.414;9.938;2022-09-16T13:00:09;14.20;99.90
698;DHT22;331;48.414;9.938;2022-09-16T13:02:38;14.20;99.90
698;DHT22;331;48.414;9.938;2022-09-16T13:05:10;14.20;99.90
698;DHT22;331;48.414;9.938;2022-09-16T13:07:38;14.20;99.90
698;DHT22;331;48.414;9.938;2022-09-16T13:10:06;14.20;99.90
698;DHT22;331;48.414;9.938;2022-09-16T13:12:38;14.20;99.90
698;DHT22;331;48.414;9.938;2022-09-16T13:15:05;14.20;99.90
698;DHT22;331;48.414;9.938;2022-09-16T13:17:33;14.30;99.90
698;DHT22;331;48.414;9.938;2022-09-16T13:20:04;14.20;99.90
698;DHT22;331;48.414;9.938;2022-09-16T13:22:34;14.30;99.90
698;DHT22;331;48.414;9.938;2022-09-16T13:25:07;14.20;99.90
698;DHT22;331;48.414;9.938;2022-09-16T13:27:35;14.30;99.90
698;DHT22;331;48.414;9.938;2022-09-16T13:30:26;14.20;99.90
698;DHT22;331;48.414;9.938;2022-09-16T13:32:57;14.30;99.90
698;DHT22;331;48.414;9.938;2022-09-16T13:35:34;14.30;99.90
698;DHT22;331;48.414;9.938;2022-09-16T13:38:10;14.30;99.90
698;DHT22;331;48.414;9.938;2022-09-16T13:40:37;14.30;99.90
698;DHT22;331;48.414;9.938;2022-09-16T13:43:11;14.30;99.90
698;DHT22;331;48.414;9.938;2022-09-16T13:45:42;14.30;99.90
698;DHT22;331;48.414;9.938;2022-09-16T13:48:12;14.30;99.90
698;DHT22;331;48.414;9.938;2022-09-16T13:50:40;14.30;99.90
698;DHT22;331;48.414;9.938;2022-09-16T13:53:08;14.30;99.90
698;DHT22;331;48.414;9.938;2022-09-16T13:55:35;14.30;99.90
698;DHT22;331;48.414;9.938;2022-09-16T13:58:04;14.30;99.90
698;DHT22;331;48.414;9.938;2022-09-16T14:00:32;14.40;99.90
698;DHT22;331;48.414;9.938;2022-09-16T14:06:04;14.40;99.90
698;DHT22;331;48.414;9.938;2022-09-16T14:08:38;14.40;99.90
698;DHT22;331;48.414;9.938;2022-09-16T14:11:07;14.40;99.90
698;DHT22;331;48.414;9.938;2022-09-16T14:13:35;14.40;99.90
698;DHT22;331;48.414;9.938;2022-09-16T14:16:08;14.40;99.90
698;DHT22;331;48.414;9.938;2022-09-16T14:18:36;14.40;99.90
698;DHT22;331;48.414;9.938;2022-09-16T14:21:16;14.50;99.90
698;DHT22;331;48.414;9.938;2022-09-16T14:23:43;14.50;99.90
698;DHT22;331;48.414;9.938;2022-09-16T14:26:10;14.50;99.90
698;DHT22;331;48.414;9.938;2022-09-16T14:28:38;14.50;99.90
698;DHT22;331;48.414;9.938;2022-09-16T14:31:06;14.50;99.90
698;DHT22;331;48.414;9.938;2022-09-16T14:33:34;14.50;99.90
698;DHT22;331;48.414;9.938;2022-09-16T14:36:07;14.50;99.90
698;DHT22;331;48.414;9.938;2022-09-16T14:38:36;14.50;99.90
698;DHT22;331;48.414;9.938;2022-09-16T14:41:09;14.50;99.90
698;DHT22;331;48.414;9.938;2022-09-16T14:43:36;14.50;99.90
698;DHT22;331;48.414;9.938;2022-09-16T14:46:06;14.50;99.90
698;DHT22;331;48.414;9.938;2022-09-16T14:48:37;14.50;99.90
698;DHT22;331;48.414;9.938;2022-09-16T14:51:07;14.50;99.90
698;DHT22;331;48.414;9.938;2022-09-16T14:53:41;14.50;99.90
698;DHT22;331;48.414;9.938;2022-09-16T14:56:21;14.50;99.90
698;DHT22;331;48.414;9.938;2022-09-16T14:58:48;14.50;99.90
698;DHT22;331;48.414;9.938;2022-09-16T15:01:16;14.50;99.90
698;DHT22;331;48.414;9.938;2022-09-16T15:03:46;14.50;99.90
698;DHT22;331;48.414;9.938;2022-09-16T15:06:15;14.50;99.90
698;DHT22;331;48.414;9.938;2022-09-16T15:08:46;14.50;99.90
698;DHT22;331;48.414;9.938;2022-09-16T15:11:14;14.50;99.90
698;DHT22;331;48.414;9.938;2022-09-16T15:13:47;14.60;99.90
698;DHT22;331;48.414;9.938;2022-09-16T15:16:21;14.60;99.90
698;DHT22;331;48.414;9.938;2022-09-16T15:18:52;14.50;99.90
698;DHT22;331;48.414;9.938;2022-09-16T15:21:21;14.50;99.90
698;DHT22;331;48.414;9.938;2022-09-16T15:23:51;14.60;99.90
698;DHT22;331;48.414;9.938;2022-09-16T15:26:22;14.60;99.90
698;DHT22;331;48.414;9.938;2022-09-16T15:28:50;14.50;99.90
698;DHT22;331;48.414;9.938;2022-09-16T15:31:24;14.60;99.90
698;DHT22;331;48.414;9.938;2022-09-16T15:33:58;14.50;99.90
698;DHT22;331;48.414;9.938;2022-09-16T15:36:35;14.50;99.90
698;DHT22;331;48.414;9.938;2022-09-16T15:41:45;14.60;99.90
698;DHT22;331;48.414;9.938;2022-09-16T15:44:13;14.60;99.90
698;DHT22;331;48.414;9.938;2022-09-16T15:46:48;14.60;99.90
698;DHT22;331;48.414;9.938;2022-09-16T15:49:15;14.60;99.90
698;DHT22;331;48.414;9.938;2022-09-16T15:51:45;14.60;99.90
698;DHT22;331;48.414;9.938;2022-09-16T15:54:14;14.60;99.90
698;DHT22;331;48.414;9.938;2022-09-16T15:56:54;14.60;99.90
698;DHT22;331;48.414;9.938;2022-09-16T15:59:27;14.60;99.90
698;DHT22;331;48.414;9.938;2022-09-16T16:01:57;14.60;99.90
698;DHT22;331;48.414;9.938;2022-09-16T16:04:26;14.60;99.90
698;DHT22;331;48.414;9.938;2022-09-16T16:07:00;14.60;99.90
698;DHT22;331;48.414;9.938;2022-09-16T16:09:31;14.60;99.90
698;DHT22;331;48.414;9.938;2022-09-16T16:12:01;14.60;99.90
698;DHT22;331;48.414;9.938;2022-09-16T16:14:28;14.60;99.90
698;DHT22;331;48.414;9.938;2022-09-16T16:16:57;14.60;99.90
698;DHT22;331;48.414;9.938;2022-09-16T16:19:25;14.60;99.90
698;DHT22;331;48.414;9.938;2022-09-16T16:21:53;14.60;99.90
698;DHT22;331;48.414;9.938;2022-09-16T16:24:21;14.60;99.90
698;DHT22;331;48.414;9.938;2022-09-16T16:26:48;14.60;99.90
698;DHT22;331;48.414;9.938;2022-09-16T16:29:17;14.60;99.90
698;DHT22;331;48.414;9.938;2022-09-16T16:31:57;14.60;99.90
698;DHT22;331;48.414;9.938;2022-09-16T16:34:24;14.60;99.90
698;DHT22;331;48.414;9.938;2022-09-16T16:36:51;14.60;99.90
698;DHT22;331;48.414;9.938;2022-09-16T16:39:21;14.60;99.90
698;DHT22;331;48.414;9.938;2022-09-16T16:41:52;14.60;99.90
698;DHT22;331;48.414;9.938;2022-09-16T16:44:21;14.60;99.90
698;DHT22;331;48.414;9.938;2022-09-16T16:46:48;14.60;99.90
698;DHT22;331;48.414;9.938;2022-09-16T16:49:15;14.60;99.90
698;DHT22;331;48.414;9.938;2022-09-16T16:51:42;14.70;99.90
698;DHT22;331;48.414;9.938;2022-09-16T16:54:11;14.70;99.90
698;DHT22;331;48.414;9.938;2022-09-16T16:56:39;14.70;99.90
698;DHT22;331;48.414;9.938;2022-09-16T16:59:07;14.70;99.90
698;DHT22;331;48.414;9.938;2022-09-16T17:01:35;14.70;99.90
698;DHT22;331;48.414;9.938;2022-09-16T17:04:02;14.70;99.90
698;DHT22;331;48.414;9.938;2022-09-16T17:06:29;14.70;99.90
698;DHT22;331;48.414;9.938;2022-09-16T17:08:56;14.70;99.90